KDNN/DNN METAR and TAF weather

Enter ICAO airport designator
Station Type Date Time Source
KDNN METAR 2018/12/10 19:55 UTC NOAA

KDNN 101955Z AUTO 34004KT 10SM -RA BKN028 04/04 A3014 RMK AO2 P0001


Station Type Date Time Source
KDNN Decoded METAR 2018/12/10 19:55 UTC NOAA

Dalton, Dalton Municipal Airport, GA, United States (KDNN) 34-43-18N 084-52-09W
Dec 10, 2018 - 02:55 PM EST / 2018.12.10 1955 UTC
Wind: from the NNW (340 degrees) at 5 MPH (4 KT):0
Visibility: 10 mile(s):0
Sky conditions: mostly cloudy
Weather: light rain
Precipitation last hour: 0.01 inches
Temperature: 39 F (4 C)
Dew Point: 39 F (4 C)
Relative Humidity: 100%
Pressure (altimeter): 30.14 in. Hg (1020 hPa)
ob: KDNN 101955Z AUTO 34004KT 10SM -RA BKN028 04/04 A3014 RMK AO2 P0001
cycle: 20

Station Type Date Time Source
KDNN TAF UTC NOAA

Error!


Example: see airport list